Time;durP1;ratioP1;P1;durP2;ratioP2;P2;SDS_P1;SDS_P2;PMS_P1;PMS_P2;Temp;Humidity;BMP_temperature;BMP_pressure;BME280_temperature;BME280_humidity;BME280_pressure;Samples;Min_cycle;Max_cycle;Signal;HPM_P1;HPM_P2
2022/09/02 00:00:07;;;;;;;1.33;0.85;;;18.50;57.10;;;;;;2568732;23;20047;-72
2022/09/02 00:01:18;;;;;;;3.45;0.90;;;18.50;57.80;;;;;;2568836;23;20445;-72
2022/09/02 00:02:22;;;;;;;4.38;1.00;;;18.40;57.20;;;;;;2554933;23;20005;-72
2022/09/02 00:03:22;;;;;;;1.58;1.02;;;18.40;57.20;;;;;;2555574;23;19997;-72
2022/09/02 00:04:25;;;;;;;5.18;1.10;;;18.40;57.30;;;;;;2568593;23;20009;-73
2022/09/02 00:05:25;;;;;;;1.70;1.02;;;18.40;57.40;;;;;;2568410;23;20009;-72
2022/09/02 00:06:27;;;;;;;2.55;0.93;;;18.40;57.40;;;;;;2568339;23;20003;-72
2022/09/02 00:07:28;;;;;;;2.17;1.40;;;18.40;57.40;;;;;;2568642;23;20009;-72
2022/09/02 00:08:33;;;;;;;3.13;1.17;;;18.40;57.50;;;;;;2568501;23;20453;-73
2022/09/02 00:09:34;;;;;;;1.88;0.80;;;18.40;57.50;;;;;;2568957;23;20011;-72
2022/09/02 00:10:37;;;;;;;2.70;1.10;;;18.40;57.50;;;;;;2568534;23;20016;-72
2022/09/02 00:11:39;;;;;;;2.20;0.93;;;18.30;57.60;;;;;;2568701;23;20023;-73
2022/09/02 00:12:40;;;;;;;2.35;1.13;;;18.30;57.60;;;;;;2568951;23;20076;-73
2022/09/02 00:13:41;;;;;;;3.80;1.00;;;18.30;57.60;;;;;;2568193;23;20005;-72
2022/09/02 00:14:41;;;;;;;3.40;1.30;;;18.30;57.60;;;;;;2555167;23;20009;-72
2022/09/02 00:15:42;;;;;;;3.72;1.10;;;18.30;57.70;;;;;;2554348;23;20001;-73
2022/09/02 00:16:50;;;;;;;5.18;1.15;;;18.30;57.70;;;;;;2568164;23;20332;-73
2022/09/02 00:17:51;;;;;;;2.38;1.08;;;18.30;57.70;;;;;;2568919;23;20004;-72
2022/09/02 00:18:52;;;;;;;2.28;0.85;;;18.20;57.80;;;;;;2555358;23;20008;-73
2022/09/02 00:19:53;;;;;;;3.15;1.02;;;18.20;57.80;;;;;;2555391;23;20096;-72
2022/09/02 00:20:54;;;;;;;3.60;1.00;;;18.20;57.80;;;;;;2555729;23;20055;-72
2022/09/02 00:21:56;;;;;;;2.63;0.82;;;18.20;57.90;;;;;;2568775;23;20047;-72
2022/09/02 00:22:57;;;;;;;1.90;0.90;;;18.20;57.80;;;;;;2555418;23;20484;-72
2022/09/02 00:23:59;;;;;;;0.98;0.77;;;18.20;57.80;;;;;;2555081;23;20005;-72
2022/09/02 00:24:59;;;;;;;2.13;1.20;;;18.20;57.80;;;;;;2555449;23;20001;-72
2022/09/02 00:26:00;;;;;;;3.25;1.15;;;18.20;58.00;;;;;;2568052;23;20075;-72
2022/09/02 00:27:00;;;;;;;4.75;1.17;;;18.20;58.00;;;;;;2568542;23;20054;-72
2022/09/02 00:28:02;;;;;;;1.98;0.90;;;18.20;58.00;;;;;;2568697;23;20425;-72
2022/09/02 00:29:04;;;;;;;2.53;1.20;;;18.20;57.90;;;;;;2568822;23;20061;-72
2022/09/02 00:30:05;;;;;;;1.58;0.85;;;18.20;58.10;;;;;;2555122;23;20381;-72
2022/09/02 00:31:06;;;;;;;2.10;1.00;;;18.20;58.00;;;;;;2555254;23;20390;-73
2022/09/02 00:32:06;;;;;;;3.97;1.25;;;18.20;57.90;;;;;;2555489;23;20032;-72
2022/09/02 00:33:08;;;;;;;2.85;0.90;;;18.10;58.10;;;;;;2555062;23;20005;-72
2022/09/02 00:34:09;;;;;;;1.35;1.02;;;18.20;58.20;;;;;;2555267;23;20009;-72
2022/09/02 00:35:10;;;;;;;4.82;1.20;;;18.10;58.00;;;;;;2555220;23;20005;-73
2022/09/02 00:36:11;;;;;;;0.70;0.63;;;18.10;58.20;;;;;;2568092;23;20009;-72
2022/09/02 00:37:12;;;;;;;1.67;0.85;;;18.20;58.30;;;;;;2568706;23;20519;-72
2022/09/02 00:38:13;;;;;;;1.20;1.05;;;18.10;58.30;;;;;;2567854;23;20388;-72
2022/09/02 00:39:14;;;;;;;2.65;1.00;;;18.10;58.20;;;;;;2568515;23;20005;-72
2022/09/02 00:40:15;;;;;;;0.80;0.80;;;18.10;58.30;;;;;;2568897;23;19999;-72
2022/09/02 00:41:20;;;;;;;2.92;0.98;;;18.10;58.30;;;;;;2554935;23;20020;-73
2022/09/02 00:42:21;;;;;;;4.53;1.10;;;18.10;58.50;;;;;;2556131;23;20442;-73
2022/09/02 00:43:42;;;;;;;4.50;1.10;;;18.10;58.50;;;;;;2568028;23;20428;-73
2022/09/02 00:44:43;;;;;;;3.75;1.20;;;18.10;58.60;;;;;;2568709;23;20329;-72
2022/09/02 00:45:43;;;;;;;3.60;0.93;;;18.00;58.50;;;;;;2568186;23;20023;-73
2022/09/02 00:46:44;;;;;;;6.07;1.23;;;18.00;58.70;;;;;;2568120;23;20315;-72
2022/09/02 00:47:46;;;;;;;2.67;1.20;;;18.00;58.80;;;;;;2568392;23;20071;-72
2022/09/02 00:49:04;;;;;;;2.08;0.70;;;18.00;58.90;;;;;;2568901;23;19997;-72
2022/09/02 00:50:09;;;;;;;4.57;0.93;;;18.00;59.00;;;;;;2555595;23;20008;-72
2022/09/02 00:51:11;;;;;;;0.80;0.75;;;17.90;58.80;;;;;;2555883;23;20420;-72
2022/09/02 00:52:23;;;;;;;3.25;1.08;;;17.90;58.90;;;;;;2568060;23;20472;-72
2022/09/02 00:53:25;;;;;;;2.35;0.90;;;17.90;59.20;;;;;;2554819;23;20009;-72
2022/09/02 00:54:28;;;;;;;2.42;0.98;;;17.90;59.00;;;;;;2555630;23;20005;-72
2022/09/02 00:55:33;;;;;;;0.93;0.80;;;17.90;59.00;;;;;;2568201;23;20004;-72
2022/09/02 00:56:37;;;;;;;3.22;1.20;;;17.90;58.90;;;;;;2568367;23;20055;-72
2022/09/02 00:57:47;;;;;;;2.13;1.10;;;17.90;58.90;;;;;;2568430;23;19997;-72
2022/09/02 00:58:50;;;;;;;1.05;0.80;;;17.90;59.70;;;;;;2568485;23;20000;-72
2022/09/02 00:59:58;;;;;;;5.43;1.60;;;17.80;58.90;;;;;;2568962;23;20009;-72
2022/09/02 01:00:59;;;;;;;2.15;1.00;;;17.80;59.00;;;;;;2569031;23;20007;-72
2022/09/02 01:02:00;;;;;;;1.42;1.02;;;17.90;59.10;;;;;;2554850;23;20005;-72
2022/09/02 01:03:04;;;;;;;3.92;1.30;;;17.80;59.30;;;;;;2554805;23;20076;-72
2022/09/02 01:04:06;;;;;;;1.33;1.05;;;17.80;59.40;;;;;;2568553;23;20060;-72
2022/09/02 01:05:10;;;;;;;2.55;1.10;;;17.80;59.30;;;;;;2568515;23;20005;-72
2022/09/02 01:06:14;;;;;;;3.50;1.10;;;17.80;59.30;;;;;;2568350;23;20000;-72
2022/09/02 01:07:14;;;;;;;2.58;1.00;;;17.80;59.50;;;;;;2555071;23;20051;-73
2022/09/02 01:08:20;;;;;;;4.57;1.58;;;17.80;59.70;;;;;;2555149;23;20087;-72
2022/09/02 01:09:23;;;;;;;3.63;1.00;;;17.80;59.70;;;;;;2556777;23;20005;-72
2022/09/02 01:10:27;;;;;;;2.72;0.95;;;17.70;59.70;;;;;;2568357;23;20004;-72
2022/09/02 01:11:43;;;;;;;4.20;1.05;;;17.70;60.30;;;;;;2568570;23;20416;-72
2022/09/02 01:12:44;;;;;;;5.88;1.38;;;17.70;59.80;;;;;;2568689;23;19992;-72
2022/09/02 01:13:45;;;;;;;1.95;1.10;;;17.70;59.60;;;;;;2567785;23;20126;-72
2022/09/02 01:14:46;;;;;;;3.20;1.13;;;17.70;59.70;;;;;;2568581;23;20008;-72
2022/09/02 01:16:02;;;;;;;2.25;1.00;;;17.70;60.00;;;;;;2568420;23;20007;-72
2022/09/02 01:17:04;;;;;;;2.25;0.93;;;17.60;60.10;;;;;;2567752;23;20001;-72
2022/09/02 01:18:07;;;;;;;2.17;1.25;;;17.60;60.10;;;;;;2568304;23;20087;-72
2022/09/02 01:19:16;;;;;;;1.67;1.00;;;17.60;60.20;;;;;;2568319;23;20119;-72
2022/09/02 01:20:21;;;;;;;3.15;1.40;;;17.60;60.20;;;;;;2568612;23;20149;-72
2022/09/02 01:21:22;;;;;;;1.30;1.00;;;17.60;60.50;;;;;;2568253;23;20008;-72
2022/09/02 01:22:26;;;;;;;2.88;1.05;;;17.50;60.60;;;;;;2568648;23;20079;-73
2022/09/02 01:23:28;;;;;;;7.43;1.42;;;17.50;60.50;;;;;;2567783;23;20063;-72
2022/09/02 01:24:31;;;;;;;4.18;0.98;;;17.50;60.70;;;;;;2568566;23;20001;-73
2022/09/02 01:25:33;;;;;;;2.22;1.20;;;17.50;60.90;;;;;;2555000;23;20012;-72
2022/09/02 01:26:33;;;;;;;3.08;0.93;;;17.50;60.80;;;;;;2554636;23;20004;-73
2022/09/02 01:27:35;;;;;;;2.33;0.95;;;17.50;60.80;;;;;;2569529;23;19993;-72
2022/09/02 01:28:36;;;;;;;2.33;1.15;;;17.50;61.00;;;;;;2569308;23;20064;-72
2022/09/02 01:29:37;;;;;;;2.55;1.13;;;17.50;61.10;;;;;;2569156;23;20005;-72
2022/09/02 01:30:41;;;;;;;3.13;1.10;;;17.40;61.10;;;;;;2569224;23;20000;-72
2022/09/02 01:31:41;;;;;;;4.45;1.20;;;17.40;61.10;;;;;;2569113;23;20004;-72
2022/09/02 01:32:42;;;;;;;2.25;1.67;;;17.40;61.30;;;;;;2568983;23;20075;-72
2022/09/02 01:33:42;;;;;;;3.28;0.90;;;17.40;61.70;;;;;;2569135;23;20001;-73
2022/09/02 01:34:43;;;;;;;1.30;1.20;;;17.30;61.70;;;;;;2569140;23;20303;-72
2022/09/02 01:35:44;;;;;;;2.97;1.17;;;17.30;61.80;;;;;;2568711;23;20468;-72
2022/09/02 01:36:44;;;;;;;1.98;1.02;;;17.30;62.00;;;;;;2569054;23;20068;-72
2022/09/02 01:37:45;;;;;;;2.22;1.27;;;17.30;61.90;;;;;;2555644;23;20005;-72
2022/09/02 01:38:46;;;;;;;6.43;1.33;;;17.30;61.90;;;;;;2543775;23;20083;-72
2022/09/02 01:39:47;;;;;;;3.92;1.10;;;17.30;62.10;;;;;;2554690;23;20008;-72
2022/09/02 01:40:48;;;;;;;1.23;0.98;;;17.30;62.00;;;;;;2569177;23;19992;-72
2022/09/02 01:41:49;;;;;;;2.92;1.23;;;17.30;61.90;;;;;;2569260;23;20333;-72
2022/09/02 01:42:54;;;;;;;5.05;1.20;;;17.30;62.00;;;;;;2569359;23;20019;-72
2022/09/02 01:43:55;;;;;;;4.38;0.90;;;17.30;62.30;;;;;;2555783;23;20455;-72
2022/09/02 01:44:56;;;;;;;2.47;1.00;;;17.20;62.20;;;;;;2555842;23;20338;-72
2022/09/02 01:45:58;;;;;;;6.82;1.20;;;17.20;62.30;;;;;;2568949;23;20429;-72
2022/09/02 01:46:58;;;;;;;1.60;1.00;;;17.20;62.50;;;;;;2569253;23;20051;-72
2022/09/02 01:47:59;;;;;;;4.45;0.90;;;17.20;62.50;;;;;;2568955;23;20131;-72
2022/09/02 01:49:00;;;;;;;11.20;1.30;;;17.20;62.50;;;;;;2568980;23;20364;-72
2022/09/02 01:50:01;;;;;;;4.13;1.10;;;17.20;62.80;;;;;;2555757;23;20023;-72
2022/09/02 01:51:03;;;;;;;3.47;1.25;;;17.10;63.00;;;;;;2556457;23;20394;-72
2022/09/02 01:52:04;;;;;;;3.17;0.88;;;17.10;62.90;;;;;;2568701;23;20008;-72
2022/09/02 01:53:05;;;;;;;1.92;0.98;;;17.10;63.10;;;;;;2568589;23;20004;-72
2022/09/02 01:54:06;;;;;;;2.33;0.90;;;17.10;63.00;;;;;;2569606;23;20481;-72
2022/09/02 01:55:07;;;;;;;2.53;1.10;;;17.10;63.30;;;;;;2568321;23;20071;-72
2022/09/02 01:56:07;;;;;;;2.05;1.02;;;17.10;63.40;;;;;;2555663;23;20385;-72
2022/09/02 01:57:08;;;;;;;2.90;0.95;;;17.00;63.50;;;;;;2555757;23;20005;-72
2022/09/02 01:58:09;;;;;;;4.07;1.15;;;17.00;63.30;;;;;;2555761;23;20076;-72
2022/09/02 01:59:12;;;;;;;1.73;0.98;;;17.00;63.50;;;;;;2569126;23;20001;-72
2022/09/02 02:00:13;;;;;;;2.22;0.88;;;17.00;63.70;;;;;;2568900;23;20030;-73
2022/09/02 02:01:14;;;;;;;1.80;1.20;;;17.00;63.90;;;;;;2569196;23;20059;-72
2022/09/02 02:02:15;;;;;;;2.83;1.10;;;17.00;64.00;;;;;;2569009;23;20068;-72
2022/09/02 02:03:15;;;;;;;5.88;1.55;;;17.00;64.20;;;;;;2568687;23;20074;-72
2022/09/02 02:04:16;;;;;;;2.97;0.98;;;16.90;64.20;;;;;;2569633;23;20040;-72
2022/09/02 02:05:17;;;;;;;2.33;1.00;;;17.00;64.30;;;;;;2555905;23;20009;-73
2022/09/02 02:06:18;;;;;;;3.63;0.95;;;16.90;64.50;;;;;;2555745;23;20004;-72
2022/09/02 02:07:21;;;;;;;2.30;0.98;;;16.90;64.60;;;;;;2554420;23;20245;-72
2022/09/02 02:08:22;;;;;;;2.50;1.08;;;16.90;64.40;;;;;;2556446;23;20001;-72
2022/09/02 02:09:23;;;;;;;2.53;1.00;;;16.90;64.60;;;;;;2568981;23;20078;-72
2022/09/02 02:10:24;;;;;;;2.47;0.95;;;16.90;64.40;;;;;;2569170;23;20001;-72
2022/09/02 02:11:25;;;;;;;5.25;1.10;;;16.90;64.50;;;;;;2569224;23;20000;-72
2022/09/02 02:12:25;;;;;;;2.60;0.95;;;16.90;64.80;;;;;;2569131;23;20461;-72
2022/09/02 02:13:26;;;;;;;3.92;1.30;;;16.90;64.80;;;;;;2568916;23;20025;-72
2022/09/02 02:14:26;;;;;;;1.42;0.85;;;16.90;64.90;;;;;;2568979;23;20047;-72
2022/09/02 02:15:28;;;;;;;3.58;1.00;;;16.90;65.10;;;;;;2568941;23;20088;-72
2022/09/02 02:16:29;;;;;;;1.80;0.90;;;16.90;65.10;;;;;;2568370;23;20047;-72
2022/09/02 02:17:29;;;;;;;4.43;1.15;;;16.90;65.10;;;;;;2568963;23;20059;-72
2022/09/02 02:18:30;;;;;;;1.38;1.08;;;16.90;65.20;;;;;;2568798;23;20328;-72
2022/09/02 02:19:31;;;;;;;3.65;1.42;;;16.80;65.20;;;;;;2555846;23;20033;-72
2022/09/02 02:20:31;;;;;;;1.05;0.80;;;16.90;65.40;;;;;;2555988;23;20064;-72
2022/09/02 02:21:32;;;;;;;1.38;0.98;;;16.80;65.10;;;;;;2569188;23;20008;-72
2022/09/02 02:22:33;;;;;;;1.70;1.08;;;16.90;65.20;;;;;;2568950;23;20079;-72
2022/09/02 02:23:33;;;;;;;4.60;0.98;;;16.90;64.80;;;;;;2568903;23;20000;-72
2022/09/02 02:24:34;;;;;;;3.15;1.10;;;16.90;64.90;;;;;;2569241;23;20039;-72
2022/09/02 02:25:35;;;;;;;1.00;0.90;;;16.90;65.30;;;;;;2568744;23;20004;-72
2022/09/02 02:26:36;;;;;;;2.95;1.15;;;16.90;65.40;;;;;;2568893;23;20111;-73
2022/09/02 02:27:36;;;;;;;2.78;0.90;;;16.90;65.50;;;;;;2568674;23;20032;-72
2022/09/02 02:28:37;;;;;;;1.88;0.95;;;16.90;65.10;;;;;;2569251;23;20007;-72
2022/09/02 02:29:37;;;;;;;3.08;0.77;;;16.90;65.10;;;;;;2569093;23;20071;-72
2022/09/02 02:30:38;;;;;;;0.98;0.85;;;16.80;64.80;;;;;;2569036;23;20059;-72
2022/09/02 02:31:40;;;;;;;3.40;1.50;;;16.90;64.90;;;;;;2555904;23;20127;-72
2022/09/02 02:32:42;;;;;;;2.97;0.88;;;16.90;64.80;;;;;;2555960;23;20005;-72
2022/09/02 02:33:42;;;;;;;1.35;0.80;;;16.90;65.00;;;;;;2555382;23;20012;-72
2022/09/02 02:34:44;;;;;;;0.95;0.93;;;16.90;64.80;;;;;;2555495;23;20418;-72
2022/09/02 02:35:45;;;;;;;2.97;1.10;;;16.90;65.10;;;;;;2555977;23;20000;-72
2022/09/02 02:36:45;;;;;;;1.55;0.90;;;16.80;65.40;;;;;;2567976;23;20075;-72
2022/09/02 02:37:48;;;;;;;2.95;1.02;;;16.80;65.10;;;;;;2568512;23;20046;-72
2022/09/02 02:38:48;;;;;;;1.35;0.98;;;16.80;65.10;;;;;;2568695;23;20011;-72
2022/09/02 02:39:49;;;;;;;2.58;0.63;;;16.80;64.90;;;;;;2556120;23;20092;-72
2022/09/02 02:40:56;;;;;;;2.15;1.00;;;16.80;64.90;;;;;;2555705;23;20035;-72
2022/09/02 02:41:56;;;;;;;0.63;0.60;;;16.80;65.00;;;;;;2555809;23;20472;-72
2022/09/02 02:42:57;;;;;;;1.23;0.75;;;16.80;65.00;;;;;;2555888;23;20080;-72
2022/09/02 02:43:58;;;;;;;1.75;0.77;;;16.80;65.10;;;;;;2569040;23;20373;-72
2022/09/02 02:44:59;;;;;;;5.07;1.15;;;16.80;65.00;;;;;;2569115;23;20032;-72
2022/09/02 02:45:59;;;;;;;2.78;1.15;;;16.80;65.10;;;;;;2568631;23;20001;-72
2022/09/02 02:47:00;;;;;;;1.35;0.80;;;16.80;65.30;;;;;;2568750;23;20425;-73
2022/09/02 02:48:01;;;;;;;2.55;1.08;;;16.80;65.00;;;;;;2568710;23;20009;-72
2022/09/02 02:49:04;;;;;;;1.80;0.85;;;16.80;65.20;;;;;;2568873;23;20437;-72
2022/09/02 02:50:09;;;;;;;6.80;1.10;;;16.80;65.40;;;;;;2568661;23;20080;-72
2022/09/02 02:51:10;;;;;;;2.95;0.80;;;16.80;65.70;;;;;;2555787;23;20107;-72
2022/09/02 02:52:11;;;;;;;1.48;0.68;;;16.80;65.50;;;;;;2555747;23;20480;-72
2022/09/02 02:53:12;;;;;;;5.75;1.20;;;16.80;65.70;;;;;;2555019;23;20023;-72
2022/09/02 02:54:13;;;;;;;1.75;0.90;;;16.80;65.50;;;;;;2554629;23;20505;-72
2022/09/02 02:55:14;;;;;;;4.20;1.30;;;16.80;65.80;;;;;;2555924;23;20008;-72
2022/09/02 02:56:15;;;;;;;2.17;1.25;;;16.80;65.50;;;;;;2556188;23;20009;-72
2022/09/02 02:57:16;;;;;;;1.42;0.93;;;16.80;65.30;;;;;;2556590;23;20005;-72
2022/09/02 02:58:17;;;;;;;2.58;0.93;;;16.70;65.40;;;;;;2556769;23;20017;-72
2022/09/02 02:59:17;;;;;;;6.35;1.02;;;16.70;65.50;;;;;;2556367;23;20009;-72
2022/09/02 03:00:25;;;;;;;2.67;1.08;;;16.70;65.70;;;;;;2556668;23;20123;-72
2022/09/02 03:01:25;;;;;;;2.17;1.00;;;16.70;65.40;;;;;;2556345;23;20008;-73
2022/09/02 03:02:26;;;;;;;2.97;1.00;;;16.70;65.60;;;;;;2556507;23;19997;-72
2022/09/02 03:03:27;;;;;;;1.27;0.75;;;16.70;65.60;;;;;;2556252;23;20055;-72
2022/09/02 03:04:28;;;;;;;6.38;1.00;;;16.70;65.70;;;;;;2556553;23;20047;-72
2022/09/02 03:05:29;;;;;;;2.05;0.90;;;16.70;65.70;;;;;;2554072;23;20013;-72
2022/09/02 03:06:30;;;;;;;4.90;0.90;;;16.70;66.00;;;;;;2555467;23;19994;-72
2022/09/02 03:07:30;;;;;;;3.88;1.33;;;16.70;65.90;;;;;;2555586;23;20041;-72
2022/09/02 03:08:31;;;;;;;2.33;1.00;;;16.70;65.80;;;;;;2555821;23;20484;-72
2022/09/02 03:09:33;;;;;;;1.67;0.90;;;16.70;65.60;;;;;;2556631;23;20385;-72
2022/09/02 03:10:34;;;;;;;1.10;0.82;;;16.70;65.60;;;;;;2556323;23;20044;-72
2022/09/02 03:11:35;;;;;;;1.15;0.85;;;16.70;65.80;;;;;;2556441;23;20001;-72
2022/09/02 03:12:38;;;;;;;1.20;0.80;;;16.70;65.80;;;;;;2556577;23;20314;-72
2022/09/02 03:13:38;;;;;;;4.50;1.10;;;16.70;65.60;;;;;;2555432;23;20358;-72
2022/09/02 03:14:39;;;;;;;1.23;0.90;;;16.70;66.10;;;;;;2555421;23;19996;-72
2022/09/02 03:15:41;;;;;;;3.75;0.95;;;16.60;65.60;;;;;;2556139;23;20005;-72
2022/09/02 03:16:42;;;;;;;2.88;0.90;;;16.60;65.90;;;;;;2555104;23;20029;-72
2022/09/02 03:17:44;;;;;;;3.13;1.00;;;16.60;66.10;;;;;;2555226;23;19993;-72
2022/09/02 03:18:47;;;;;;;1.85;1.05;;;16.60;66.00;;;;;;2556674;23;20437;-72
2022/09/02 03:19:49;;;;;;;3.03;0.85;;;16.60;66.30;;;;;;2556312;23;20080;-72
2022/09/02 03:20:50;;;;;;;3.97;0.70;;;16.60;66.10;;;;;;2555874;23;20460;-72
2022/09/02 03:21:51;;;;;;;2.35;0.90;;;16.60;65.90;;;;;;2555460;23;20008;-72
2022/09/02 03:22:55;;;;;;;1.52;0.77;;;16.60;65.90;;;;;;2554937;23;20005;-72
2022/09/02 03:23:55;;;;;;;4.07;1.08;;;16.60;66.10;;;;;;2554491;23;19997;-72
2022/09/02 03:24:56;;;;;;;1.63;1.25;;;16.60;66.20;;;;;;2556203;23;20442;-72
2022/09/02 03:25:56;;;;;;;1.30;0.80;;;16.60;66.00;;;;;;2555591;23;20056;-72
2022/09/02 03:26:57;;;;;;;1.50;1.02;;;16.50;65.80;;;;;;2555669;23;20374;-72
2022/09/02 03:27:58;;;;;;;1.70;0.80;;;16.50;65.80;;;;;;2556317;23;20005;-72
2022/09/02 03:28:58;;;;;;;3.05;1.17;;;16.50;65.80;;;;;;2556314;23;20005;-72
2022/09/02 03:29:59;;;;;;;2.05;0.90;;;16.50;66.10;;;;;;2556587;23;20016;-72
2022/09/02 03:31:00;;;;;;;3.88;0.90;;;16.60;66.00;;;;;;2556710;23;20012;-72
2022/09/02 03:32:01;;;;;;;1.58;0.98;;;16.60;66.30;;;;;;2556265;23;20015;-72
2022/09/02 03:33:04;;;;;;;0.98;0.88;;;16.50;66.20;;;;;;2555389;23;20000;-72
2022/09/02 03:34:04;;;;;;;1.70;1.02;;;16.50;66.30;;;;;;2556776;23;20076;-72
2022/09/02 03:35:07;;;;;;;1.70;0.63;;;16.50;66.30;;;;;;2556031;23;20001;-72
2022/09/02 03:36:18;;;;;;;0.73;0.73;;;16.50;66.60;;;;;;2556222;23;20389;-72
2022/09/02 03:37:19;;;;;;;1.30;0.75;;;16.50;66.30;;;;;;2555703;23;20016;-72
2022/09/02 03:38:20;;;;;;;3.95;1.10;;;16.50;66.50;;;;;;2555185;23;20072;-73
2022/09/02 03:39:21;;;;;;;3.63;0.90;;;16.50;66.50;;;;;;2555663;23;20013;-72
2022/09/02 03:40:24;;;;;;;6.05;0.88;;;16.50;66.80;;;;;;2556530;23;20001;-72
2022/09/02 03:41:25;;;;;;;3.70;1.25;;;16.50;66.80;;;;;;2556277;23;20330;-72
2022/09/02 03:42:25;;;;;;;5.85;1.20;;;16.40;66.60;;;;;;2556566;23;20009;-72
2022/09/02 03:43:26;;;;;;;0.73;0.60;;;16.40;66.70;;;;;;2555498;23;20009;-72
2022/09/02 03:44:27;;;;;;;2.60;1.02;;;16.50;66.70;;;;;;2556337;23;20361;-72
2022/09/02 03:45:28;;;;;;;2.75;0.90;;;16.50;67.00;;;;;;2556475;23;20004;-72
2022/09/02 03:46:29;;;;;;;2.58;0.95;;;16.40;67.00;;;;;;2555635;23;20063;-72
2022/09/02 03:47:29;;;;;;;1.77;1.00;;;16.40;66.90;;;;;;2555174;23;20009;-72
2022/09/02 03:48:30;;;;;;;4.97;1.20;;;16.40;67.40;;;;;;2556399;23;20162;-72
2022/09/02 03:49:31;;;;;;;4.80;1.40;;;16.40;67.40;;;;;;2556013;23;20001;-72
2022/09/02 03:50:36;;;;;;;3.53;1.35;;;16.40;67.60;;;;;;2555140;23;20005;-71
2022/09/02 03:51:40;;;;;;;1.80;0.85;;;16.40;67.80;;;;;;2555577;23;19993;-72
2022/09/02 03:52:41;;;;;;;3.25;1.00;;;16.40;67.60;;;;;;2564183;23;20048;-72
2022/09/02 03:53:41;;;;;;;2.10;0.70;;;16.40;67.70;;;;;;2567345;23;20011;-72
2022/09/02 03:54:42;;;;;;;8.48;1.42;;;16.40;67.90;;;;;;2568078;23;20027;-72
2022/09/02 03:55:43;;;;;;;4.18;0.80;;;16.40;67.60;;;;;;2568322;23;19996;-72
2022/09/02 03:56:43;;;;;;;5.63;0.93;;;16.40;67.90;;;;;;2568931;23;20031;-72
2022/09/02 03:57:45;;;;;;;1.85;1.02;;;16.30;68.10;;;;;;2568720;23;20070;-72
2022/09/02 03:58:48;;;;;;;1.95;1.08;;;16.30;68.30;;;;;;2567796;23;20303;-72
2022/09/02 03:59:49;;;;;;;1.67;0.95;;;16.40;68.60;;;;;;2568464;23;20011;-72
2022/09/02 04:00:53;;;;;;;2.72;1.70;;;16.40;68.80;;;;;;2568729;23;20479;-72
2022/09/02 04:01:54;;;;;;;2.10;1.25;;;16.30;68.50;;;;;;2568950;23;20459;-72
2022/09/02 04:02:55;;;;;;;4.30;1.02;;;16.30;68.40;;;;;;2568551;23;20005;-72
2022/09/02 04:03:56;;;;;;;2.42;0.88;;;16.30;68.30;;;;;;2555073;23;20056;-72
2022/09/02 04:04:56;;;;;;;1.38;0.80;;;16.30;68.10;;;;;;2555123;23;20479;-72
2022/09/02 04:05:57;;;;;;;2.40;1.35;;;16.30;67.90;;;;;;2568245;23;20016;-72
2022/09/02 04:06:58;;;;;;;2.60;1.20;;;16.30;68.20;;;;;;2555682;23;20008;-72
2022/09/02 04:07:59;;;;;;;1.90;0.98;;;16.30;68.50;;;;;;2555278;23;20005;-72
2022/09/02 04:09:00;;;;;;;3.08;1.10;;;16.30;68.70;;;;;;2568255;23;20001;-72
2022/09/02 04:10:01;;;;;;;2.10;1.00;;;16.30;68.20;;;;;;2569108;23;20035;-72
2022/09/02 04:11:09;;;;;;;2.75;1.00;;;16.30;68.30;;;;;;2568581;23;20333;-72
2022/09/02 04:12:10;;;;;;;1.40;1.02;;;16.30;68.40;;;;;;2555691;23;20028;-72
2022/09/02 04:13:11;;;;;;;1.67;1.13;;;16.30;68.80;;;;;;2555303;23;20475;-72
2022/09/02 04:14:11;;;;;;;1.15;0.90;;;16.30;68.40;;;;;;2568545;23;20038;-72
2022/09/02 04:15:12;;;;;;;2.85;1.08;;;16.30;68.50;;;;;;2568438;23;20008;-72
2022/09/02 04:16:16;;;;;;;1.27;0.95;;;16.30;69.20;;;;;;2554925;23;20087;-72
2022/09/02 04:17:17;;;;;;;2.20;1.00;;;16.20;69.00;;;;;;2554498;23;20040;-72
2022/09/02 04:18:17;;;;;;;4.30;1.15;;;16.30;69.10;;;;;;2555926;23;20032;-72
2022/09/02 04:19:18;;;;;;;1.52;1.00;;;16.30;69.70;;;;;;2568619;23;20032;-72
2022/09/02 04:20:19;;;;;;;2.72;1.02;;;16.30;69.90;;;;;;2555440;23;20059;-72
2022/09/02 04:21:20;;;;;;;3.47;0.90;;;16.30;69.80;;;;;;2555675;23;20087;-72
2022/09/02 04:22:21;;;;;;;2.83;1.15;;;16.30;70.00;;;;;;2555674;23;20142;-72
2022/09/02 04:23:22;;;;;;;4.07;1.30;;;16.30;69.90;;;;;;2554825;23;20065;-72
2022/09/02 04:24:23;;;;;;;3.67;1.08;;;16.30;70.20;;;;;;2555726;23;20001;-72
2022/09/02 04:25:24;;;;;;;4.63;1.48;;;16.20;70.10;;;;;;2568471;23;20384;-72
2022/09/02 04:26:24;;;;;;;3.45;1.08;;;16.30;70.30;;;;;;2568445;23;20075;-72
2022/09/02 04:27:25;;;;;;;3.35;0.88;;;16.20;69.80;;;;;;2568456;23;20402;-72
2022/09/02 04:28:25;;;;;;;2.13;0.98;;;16.30;69.80;;;;;;2568701;23;20075;-72
2022/09/02 04:29:26;;;;;;;4.28;0.98;;;16.20;69.70;;;;;;2568743;23;20083;-72
2022/09/02 04:30:27;;;;;;;4.28;0.93;;;16.30;69.90;;;;;;2568615;23;20602;-72
2022/09/02 04:31:31;;;;;;;3.80;1.75;;;16.30;70.20;;;;;;2568869;23;20072;-72
2022/09/02 04:32:32;;;;;;;1.58;1.10;;;16.30;69.80;;;;;;2568361;23;20009;-72
2022/09/02 04:33:33;;;;;;;4.40;1.33;;;16.30;69.70;;;;;;2568122;23;19997;-72
2022/09/02 04:34:34;;;;;;;1.77;0.93;;;16.30;70.00;;;;;;2568778;23;20000;-72
2022/09/02 04:35:38;;;;;;;1.58;1.08;;;16.30;70.10;;;;;;2568368;23;20036;-72
2022/09/02 04:36:39;;;;;;;2.70;1.00;;;16.30;70.70;;;;;;2568288;23;20024;-72
2022/09/02 04:37:39;;;;;;;3.40;1.20;;;16.30;69.70;;;;;;2569026;23;19993;-72
2022/09/02 04:38:40;;;;;;;2.95;1.20;;;16.30;69.70;;;;;;2568171;23;19996;-72
2022/09/02 04:39:41;;;;;;;4.82;1.10;;;16.30;70.00;;;;;;2568518;23;20012;-72
2022/09/02 04:40:43;;;;;;;2.47;1.30;;;16.30;70.70;;;;;;2568884;23;20024;-72
2022/09/02 04:41:44;;;;;;;2.20;1.20;;;16.30;70.40;;;;;;2568573;23;20050;-72
2022/09/02 04:42:45;;;;;;;3.75;1.25;;;16.30;70.00;;;;;;2555455;23;20028;-72
2022/09/02 04:43:45;;;;;;;2.92;1.38;;;16.30;70.50;;;;;;2543239;23;20006;-72
2022/09/02 04:44:46;;;;;;;2.88;1.60;;;16.30;70.70;;;;;;2555360;23;20001;-72
2022/09/02 04:45:47;;;;;;;2.58;1.38;;;16.30;70.60;;;;;;2568446;23;19993;-72
2022/09/02 04:46:47;;;;;;;3.00;1.20;;;16.30;70.70;;;;;;2567893;23;20345;-72
2022/09/02 04:47:48;;;;;;;6.40;1.45;;;16.30;70.50;;;;;;2568457;23;20003;-72
2022/09/02 04:48:48;;;;;;;3.25;1.23;;;16.30;70.50;;;;;;2568892;23;20103;-72
2022/09/02 04:49:52;;;;;;;2.53;1.30;;;16.30;70.60;;;;;;2568359;23;20354;-72
2022/09/02 04:50:53;;;;;;;2.40;1.30;;;16.30;70.60;;;;;;2568988;23;20008;-72
2022/09/02 04:51:53;;;;;;;3.85;1.63;;;16.30;70.80;;;;;;2568421;23;20044;-72
2022/09/02 04:52:54;;;;;;;2.40;1.45;;;16.30;71.10;;;;;;2568247;23;20016;-72
2022/09/02 04:53:55;;;;;;;3.25;1.40;;;16.30;70.70;;;;;;2555111;23;20005;-72
2022/09/02 04:54:56;;;;;;;3.75;1.38;;;16.30;71.20;;;;;;2555174;23;20005;-72
2022/09/02 04:55:57;;;;;;;6.15;1.95;;;16.30;71.60;;;;;;2568034;23;20505;-73
2022/09/02 04:56:57;;;;;;;2.22;1.45;;;16.30;71.60;;;;;;2568571;23;20092;-72
2022/09/02 04:57:58;;;;;;;3.35;1.70;;;16.30;71.10;;;;;;2568589;23;20649;-72
2022/09/02 04:58:59;;;;;;;3.53;1.50;;;16.30;71.20;;;;;;2568699;23;20009;-72
2022/09/02 05:00:02;;;;;;;5.95;1.73;;;16.30;71.20;;;;;;2568065;23;20043;-72
2022/09/02 05:01:14;;;;;;;3.20;1.48;;;16.30;72.00;;;;;;2568336;23;20075;-72
2022/09/02 05:02:14;;;;;;;4.18;1.95;;;16.40;71.60;;;;;;2568615;23;20005;-72
2022/09/02 05:03:15;;;;;;;3.03;1.67;;;16.30;71.50;;;;;;2568305;23;20213;-72
2022/09/02 05:04:15;;;;;;;2.13;1.33;;;16.30;71.70;;;;;;2568451;23;20075;-72
2022/09/02 05:05:16;;;;;;;4.18;1.50;;;16.40;72.00;;;;;;2568435;23;20001;-72
2022/09/02 05:06:20;;;;;;;3.58;1.65;;;16.40;72.10;;;;;;2567985;23;20028;-72
2022/09/02 05:07:20;;;;;;;2.55;1.42;;;16.40;72.50;;;;;;2568453;23;20302;-72
2022/09/02 05:08:22;;;;;;;3.75;1.58;;;16.40;72.10;;;;;;2568563;23;20121;-72
2022/09/02 05:09:23;;;;;;;3.65;1.45;;;16.40;72.30;;;;;;2555200;23;20005;-72
2022/09/02 05:10:23;;;;;;;3.88;2.00;;;16.40;72.80;;;;;;2555104;23;20001;-72
2022/09/02 05:11:27;;;;;;;5.28;1.92;;;16.40;72.50;;;;;;2555082;23;20001;-72
2022/09/02 05:12:30;;;;;;;4.10;1.75;;;16.40;72.40;;;;;;2568534;23;20035;-72
2022/09/02 05:13:30;;;;;;;3.63;1.77;;;16.40;71.80;;;;;;2568454;23;20068;-72
2022/09/02 05:14:31;;;;;;;4.15;1.13;;;16.40;72.10;;;;;;2568757;23;20008;-73
2022/09/02 05:15:32;;;;;;;3.25;1.45;;;16.40;72.10;;;;;;2568360;23;20461;-72
2022/09/02 05:16:36;;;;;;;5.43;2.03;;;16.40;72.20;;;;;;2567597;23;20383;-72
2022/09/02 05:17:36;;;;;;;4.53;1.27;;;16.50;73.00;;;;;;2554952;23;20414;-72
2022/09/02 05:18:37;;;;;;;6.03;1.63;;;16.50;73.10;;;;;;2555331;23;20333;-72
2022/09/02 05:19:38;;;;;;;3.03;1.50;;;16.50;72.20;;;;;;2567936;23;20000;-72
2022/09/02 05:20:39;;;;;;;5.18;1.75;;;16.50;72.50;;;;;;2568228;23;19997;-72
2022/09/02 05:21:42;;;;;;;6.60;2.22;;;16.50;72.60;;;;;;2555194;23;20008;-72